createdAt,value
2019-02-21T00:00:35.066Z,953.26
2019-02-21T00:01:34.959Z,953.27
2019-02-21T00:02:34.872Z,953.23
2019-02-21T00:03:34.850Z,953.32
2019-02-21T00:04:34.654Z,953.27
2019-02-21T00:05:34.544Z,953.30
2019-02-21T00:06:34.448Z,953.28
2019-02-21T00:07:34.360Z,953.28
2019-02-21T00:08:34.241Z,953.30
2019-02-21T00:09:34.137Z,953.31
2019-02-21T00:10:34.135Z,953.29
2019-02-21T00:11:33.930Z,953.28
2019-02-21T00:12:33.847Z,953.31
2019-02-21T00:13:33.726Z,953.32
2019-02-21T00:14:33.626Z,953.31
2019-02-21T00:15:33.543Z,953.32
2019-02-21T00:16:33.419Z,953.29
2019-02-21T00:17:33.433Z,953.35
2019-02-21T00:18:33.229Z,953.35
2019-02-21T00:19:33.111Z,953.34
2019-02-21T00:20:33.009Z,953.32
2019-02-21T00:21:32.904Z,953.33
2019-02-21T00:22:32.806Z,953.34
2019-02-21T00:23:32.716Z,953.34
2019-02-21T00:24:32.700Z,953.36
2019-02-21T00:25:32.496Z,953.38
2019-02-21T00:26:32.395Z,953.39
2019-02-21T00:27:32.293Z,953.39
2019-02-21T00:28:32.205Z,953.40
2019-02-21T00:29:32.088Z,953.40
2019-02-21T00:30:35.339Z,953.39
2019-02-21T00:31:31.982Z,953.39
2019-02-21T00:32:31.789Z,953.36
2019-02-21T00:33:31.709Z,953.35
2019-02-21T00:34:31.585Z,953.35
2019-02-21T00:35:31.473Z,953.35
2019-02-21T00:36:31.371Z,953.33
2019-02-21T00:37:31.269Z,953.33
2019-02-21T00:38:31.288Z,953.31
2019-02-21T00:39:31.060Z,953.27
2019-02-21T00:40:30.959Z,953.29
2019-02-21T00:41:30.858Z,953.29
2019-02-21T00:42:30.760Z,953.33
2019-02-21T00:43:30.670Z,953.35
2019-02-21T00:44:30.550Z,953.38
2019-02-21T00:45:30.552Z,953.39
2019-02-21T00:46:30.347Z,953.39
2019-02-21T00:47:30.246Z,953.42
2019-02-21T00:48:30.163Z,953.43
2019-02-21T00:49:30.037Z,953.44
2019-02-21T00:50:29.935Z,953.41
2019-02-21T00:51:29.970Z,953.42
2019-02-21T00:52:31.502Z,953.44
2019-02-21T00:53:29.648Z,953.42
2019-02-21T00:54:29.529Z,953.43
2019-02-21T00:55:29.423Z,953.43
2019-02-21T00:56:29.321Z,953.43
2019-02-21T00:57:29.222Z,953.41
2019-02-21T00:58:29.139Z,953.40
2019-02-21T00:59:29.016Z,953.43
2019-02-21T01:00:28.912Z,953.41
2019-02-21T01:01:28.811Z,953.45
2019-02-21T01:02:28.708Z,953.44
2019-02-21T01:03:28.624Z,953.46
2019-02-21T01:04:28.501Z,953.49
2019-02-21T01:05:28.402Z,953.44
2019-02-21T01:06:28.297Z,953.51
2019-02-21T01:07:28.194Z,953.49
2019-02-21T01:08:28.109Z,953.49
2019-02-21T01:09:27.998Z,953.49
2019-02-21T01:10:27.888Z,953.51
2019-02-21T01:11:27.783Z,953.48
2019-02-21T01:12:27.682Z,953.49
2019-02-21T01:13:27.598Z,953.53
2019-02-21T01:14:27.478Z,953.52
2019-02-21T01:15:27.373Z,953.52
2019-02-21T01:16:27.275Z,953.49
2019-02-21T01:17:27.172Z,953.54
2019-02-21T01:18:27.092Z,953.54
2019-02-21T01:19:26.970Z,953.52
2019-02-21T01:20:26.862Z,953.53
2019-02-21T01:21:26.763Z,953.52
2019-02-21T01:22:26.657Z,953.53
2019-02-21T01:23:26.574Z,953.52
2019-02-21T01:24:26.454Z,953.49
2019-02-21T01:25:26.353Z,953.50
2019-02-21T01:26:26.259Z,953.50
2019-02-21T01:27:26.258Z,953.50
2019-02-21T01:28:26.064Z,953.49
2019-02-21T01:29:25.944Z,953.50
2019-02-21T01:30:25.840Z,953.53
2019-02-21T01:31:25.738Z,953.51
2019-02-21T01:32:25.632Z,953.52
2019-02-21T01:33:25.549Z,953.55
2019-02-21T01:34:25.449Z,953.57
2019-02-21T01:35:25.327Z,953.57
2019-02-21T01:36:25.226Z,953.57
2019-02-21T01:37:25.125Z,953.54
2019-02-21T01:38:25.042Z,953.53
2019-02-21T01:39:24.966Z,953.58
2019-02-21T01:40:24.813Z,953.55
2019-02-21T01:41:24.715Z,953.55
2019-02-21T01:42:24.617Z,953.55
2019-02-21T01:43:24.525Z,953.54
2019-02-21T01:44:24.406Z,953.53
2019-02-21T01:45:24.303Z,953.56
2019-02-21T01:46:24.202Z,953.57
2019-02-21T01:47:24.100Z,953.57
2019-02-21T01:48:24.014Z,953.59
2019-02-21T01:49:23.894Z,953.57
2019-02-21T01:50:23.790Z,953.56
2019-02-21T01:51:23.688Z,953.59
2019-02-21T01:52:23.584Z,953.56
2019-02-21T01:53:23.509Z,953.61
2019-02-21T01:54:23.382Z,953.59
2019-02-21T01:55:23.277Z,953.62
2019-02-21T01:56:23.177Z,953.63
2019-02-21T01:57:23.073Z,953.57
2019-02-21T01:58:22.986Z,953.51
2019-02-21T01:59:22.867Z,953.51
2019-02-21T02:00:22.766Z,953.55
2019-02-21T02:01:22.664Z,953.55
2019-02-21T02:02:22.559Z,953.56
2019-02-21T02:03:22.461Z,953.51
2019-02-21T02:04:22.373Z,953.58
2019-02-21T02:05:22.252Z,953.58
2019-02-21T02:06:22.151Z,953.57
2019-02-21T02:07:22.045Z,953.55
2019-02-21T02:08:21.949Z,953.55
2019-02-21T02:09:21.868Z,953.47
2019-02-21T02:10:21.742Z,953.51
2019-02-21T02:11:21.636Z,953.52
2019-02-21T02:12:21.532Z,953.53
2019-02-21T02:13:24.564Z,953.49
2019-02-21T02:14:21.347Z,953.45
2019-02-21T02:15:21.223Z,953.47
2019-02-21T02:16:21.122Z,953.50
2019-02-21T02:17:21.019Z,953.46
2019-02-21T02:18:20.918Z,953.44
2019-02-21T02:19:20.830Z,953.43
2019-02-21T02:20:20.712Z,953.40
2019-02-21T02:21:20.610Z,953.36
2019-02-21T02:22:20.508Z,953.39
2019-02-21T02:23:20.501Z,953.43
2019-02-21T02:24:20.318Z,953.41
2019-02-21T02:25:20.200Z,953.39
2019-02-21T02:26:20.094Z,953.40
2019-02-21T02:27:19.990Z,953.43
2019-02-21T02:28:19.893Z,953.39
2019-02-21T02:29:19.810Z,953.39
2019-02-21T02:30:19.807Z,953.39
2019-02-21T02:31:23.433Z,953.34
2019-02-21T02:32:19.479Z,953.38
2019-02-21T02:33:19.377Z,953.38
2019-02-21T02:34:19.291Z,953.34
2019-02-21T02:35:19.171Z,953.30
2019-02-21T02:36:19.071Z,953.31
2019-02-21T02:37:19.068Z,953.30
2019-02-21T02:38:18.867Z,953.32
2019-02-21T02:39:18.780Z,953.31
2019-02-21T02:40:18.689Z,953.33
2019-02-21T02:41:18.554Z,953.33
2019-02-21T02:42:18.455Z,953.32
2019-02-21T02:43:18.348Z,953.35
2019-02-21T02:44:18.369Z,953.34
2019-02-21T02:45:18.147Z,953.31
2019-02-21T02:46:18.045Z,953.30
2019-02-21T02:47:17.939Z,953.35
2019-02-21T02:48:17.836Z,953.30
2019-02-21T02:49:17.777Z,953.29
2019-02-21T02:50:17.632Z,953.31
2019-02-21T02:51:17.633Z,953.30
2019-02-21T02:52:17.431Z,953.29
2019-02-21T02:53:17.324Z,953.29
2019-02-21T02:54:17.237Z,953.32
2019-02-21T02:55:17.118Z,953.30
2019-02-21T02:56:17.016Z,953.32
2019-02-21T02:57:16.917Z,953.31
2019-02-21T02:58:16.927Z,953.31
2019-02-21T02:59:16.728Z,953.31
2019-02-21T03:00:16.606Z,953.32
2019-02-21T03:01:16.501Z,953.35
2019-02-21T03:02:16.404Z,953.34
2019-02-21T03:03:16.297Z,953.36
2019-02-21T03:04:16.300Z,953.37
2019-02-21T03:05:16.203Z,953.38
2019-02-21T03:06:15.989Z,953.35
2019-02-21T03:07:15.905Z,953.34
2019-02-21T03:08:15.786Z,953.31
2019-02-21T03:09:15.701Z,953.34
2019-02-21T03:10:15.580Z,953.34
2019-02-21T03:11:15.553Z,953.35
2019-02-21T03:12:15.483Z,953.33
2019-02-21T03:13:15.278Z,953.38
2019-02-21T03:14:15.191Z,953.37
2019-02-21T03:15:15.067Z,953.40
2019-02-21T03:16:14.979Z,953.36
2019-02-21T03:17:14.862Z,953.38
2019-02-21T03:18:14.771Z,953.35
2019-02-21T03:19:14.779Z,953.34
2019-02-21T03:20:14.552Z,953.36
2019-02-21T03:21:14.452Z,953.33
2019-02-21T03:22:14.352Z,953.35
2019-02-21T03:23:14.248Z,953.31
2019-02-21T03:24:14.160Z,953.32
2019-02-21T03:25:14.043Z,953.33
2019-02-21T03:26:14.057Z,953.32
2019-02-21T03:27:13.840Z,953.28
2019-02-21T03:28:13.762Z,953.27
2019-02-21T03:29:13.647Z,953.30
2019-02-21T03:30:13.544Z,953.28
2019-02-21T03:31:13.426Z,953.28
2019-02-21T03:32:13.323Z,953.27
2019-02-21T03:33:13.424Z,953.29
2019-02-21T03:34:13.136Z,953.34
2019-02-21T03:35:13.046Z,953.30
2019-02-21T03:36:12.916Z,953.31
2019-02-21T03:37:12.815Z,953.30
2019-02-21T03:38:12.712Z,953.29
2019-02-21T03:39:12.627Z,953.32
2019-02-21T03:40:12.712Z,953.35
2019-02-21T03:41:12.416Z,953.38
2019-02-21T03:42:12.302Z,953.37
2019-02-21T03:43:12.210Z,953.35
2019-02-21T03:44:12.097Z,953.31
2019-02-21T03:45:12.025Z,953.33
2019-02-21T03:46:11.894Z,953.29
2019-02-21T03:47:11.886Z,953.29
2019-02-21T03:48:11.690Z,953.29
2019-02-21T03:49:11.585Z,953.25
2019-02-21T03:50:11.498Z,953.26
2019-02-21T03:51:11.380Z,953.21
2019-02-21T03:52:11.323Z,953.22
2019-02-21T03:53:11.309Z,953.23
2019-02-21T03:54:11.077Z,953.21
2019-02-21T03:55:10.988Z,953.24
2019-02-21T03:56:10.896Z,953.26
2019-02-21T03:57:10.766Z,953.19
2019-02-21T03:58:10.665Z,953.18
2019-02-21T03:59:10.565Z,953.17
2019-02-21T04:00:10.477Z,953.18
2019-02-21T04:01:10.358Z,953.18
2019-02-21T04:02:10.254Z,953.15
2019-02-21T04:03:10.155Z,953.13
2019-02-21T04:04:10.054Z,953.17
2019-02-21T04:05:09.980Z,953.21
2019-02-21T04:06:09.848Z,953.23
2019-02-21T04:07:09.743Z,953.22
2019-02-21T04:08:09.729Z,953.19
2019-02-21T04:09:09.540Z,953.18
2019-02-21T04:10:09.454Z,953.21
2019-02-21T04:11:09.337Z,953.19
2019-02-21T04:12:09.241Z,953.18
2019-02-21T04:13:09.133Z,953.15
2019-02-21T04:14:09.027Z,953.16
2019-02-21T04:15:08.948Z,953.17
2019-02-21T04:16:08.826Z,953.17
2019-02-21T04:17:08.723Z,953.13
2019-02-21T04:18:08.623Z,953.13
2019-02-21T04:19:08.526Z,953.16
2019-02-21T04:20:08.445Z,953.17
2019-02-21T04:21:08.339Z,953.17
2019-02-21T04:22:08.213Z,953.17
2019-02-21T04:23:08.108Z,953.15
2019-02-21T04:24:08.009Z,953.20
2019-02-21T04:25:07.923Z,953.23
2019-02-21T04:26:07.803Z,953.24
2019-02-21T04:27:07.700Z,953.25
2019-02-21T04:28:07.602Z,953.26
2019-02-21T04:29:07.498Z,953.22
2019-02-21T04:30:07.413Z,953.25
2019-02-21T04:31:07.294Z,953.25
2019-02-21T04:32:16.679Z,953.25
2019-02-21T04:33:07.088Z,953.30
2019-02-21T04:34:06.994Z,953.30
2019-02-21T04:35:06.901Z,953.32
2019-02-21T04:36:06.784Z,953.32
2019-02-21T04:37:06.686Z,953.30
2019-02-21T04:38:06.581Z,953.31
2019-02-21T04:39:06.479Z,953.32
2019-02-21T04:40:06.406Z,953.32
2019-02-21T04:41:06.279Z,953.33
2019-02-21T04:42:06.173Z,953.33
2019-02-21T04:43:06.071Z,953.29
2019-02-21T04:44:05.992Z,953.32
2019-02-21T04:45:05.892Z,953.29
2019-02-21T04:46:05.767Z,953.34
2019-02-21T04:47:05.665Z,953.34
2019-02-21T04:48:05.585Z,953.35
2019-02-21T04:49:05.458Z,953.36
2019-02-21T04:50:05.413Z,953.35
2019-02-21T04:51:05.258Z,953.38
2019-02-21T04:52:05.157Z,953.42
2019-02-21T04:53:05.054Z,953.40
2019-02-21T04:54:04.949Z,953.42
2019-02-21T04:55:04.881Z,953.44
2019-02-21T04:56:04.745Z,953.41
2019-02-21T04:57:04.751Z,953.43
2019-02-21T04:58:04.544Z,953.46
2019-02-21T04:59:06.589Z,953.46
2019-02-21T05:00:04.361Z,953.44
2019-02-21T05:01:04.240Z,953.40
2019-02-21T05:02:04.135Z,953.41
2019-02-21T05:03:04.034Z,953.43
2019-02-21T05:04:04.907Z,953.42
2019-02-21T05:05:03.843Z,953.44
2019-02-21T05:06:03.729Z,953.44
2019-02-21T05:07:03.624Z,953.44
2019-02-21T05:08:03.522Z,953.47
2019-02-21T05:09:03.425Z,953.47
2019-02-21T05:10:03.438Z,953.47
2019-02-21T05:11:03.222Z,953.48
2019-02-21T05:12:03.116Z,953.44
2019-02-21T05:13:03.014Z,953.46
2019-02-21T05:14:02.913Z,953.45
2019-02-21T05:15:02.830Z,953.44
2019-02-21T05:16:02.711Z,953.40
2019-02-21T05:17:02.613Z,953.39
2019-02-21T05:18:02.508Z,953.38
2019-02-21T05:19:02.426Z,953.43
2019-02-21T05:20:02.319Z,953.38
2019-02-21T05:21:02.199Z,953.40
2019-02-21T05:22:02.117Z,953.44
2019-02-21T05:23:01.997Z,953.45
2019-02-21T05:24:01.998Z,953.38
2019-02-21T05:25:01.813Z,953.41
2019-02-21T05:26:01.703Z,953.43
2019-02-21T05:27:01.599Z,953.36
2019-02-21T05:28:01.490Z,953.36
2019-02-21T05:29:01.387Z,953.43
2019-02-21T05:30:01.291Z,953.43
2019-02-21T05:31:01.301Z,953.46
2019-02-21T05:32:01.101Z,953.39
2019-02-21T05:33:01.004Z,953.36
2019-02-21T05:34:00.879Z,953.40
2019-02-21T05:35:00.782Z,953.36
2019-02-21T05:36:00.691Z,953.37
2019-02-21T05:37:00.590Z,953.41
2019-02-21T05:38:00.598Z,953.40
2019-02-21T05:39:00.370Z,953.38
2019-02-21T05:40:02.863Z,953.36
2019-02-21T05:41:00.185Z,953.36
2019-02-21T05:42:00.066Z,953.34
2019-02-21T05:42:59.968Z,953.32
2019-02-21T05:43:59.862Z,953.35
2019-02-21T05:44:59.869Z,953.35
2019-02-21T05:45:59.680Z,953.34
2019-02-21T05:46:59.556Z,953.33
2019-02-21T05:48:01.189Z,953.31
2019-02-21T05:48:59.356Z,953.33
2019-02-21T05:49:59.260Z,953.34
2019-02-21T05:50:59.172Z,953.33
2019-02-21T05:51:59.153Z,953.36
2019-02-21T05:52:58.952Z,953.38
2019-02-21T05:53:58.862Z,953.41
2019-02-21T05:54:58.749Z,953.45
2019-02-21T05:55:58.669Z,953.44
2019-02-21T05:56:58.552Z,953.46
2019-02-21T05:57:58.447Z,953.45
2019-02-21T05:58:58.447Z,953.48
2019-02-21T05:59:58.243Z,953.48
2019-02-21T06:00:58.154Z,953.52
2019-02-21T06:01:58.037Z,953.53
2019-02-21T06:02:57.942Z,953.53
2019-02-21T06:03:57.838Z,953.52
2019-02-21T06:04:57.734Z,953.57
2019-02-21T06:05:57.753Z,953.57
2019-02-21T06:06:57.529Z,953.61
2019-02-21T06:07:57.430Z,953.59
2019-02-21T06:08:57.333Z,953.62
2019-02-21T06:09:57.228Z,953.61
2019-02-21T06:10:57.635Z,953.63
2019-02-21T06:11:57.025Z,953.62
2019-02-21T06:12:59.619Z,953.65
2019-02-21T06:13:56.819Z,953.62
2019-02-21T06:14:56.719Z,953.68
2019-02-21T06:15:56.634Z,953.63
2019-02-21T06:16:56.516Z,953.68
2019-02-21T06:17:56.419Z,953.66
2019-02-21T06:18:56.437Z,953.67
2019-02-21T06:19:56.213Z,953.64
2019-02-21T06:20:57.623Z,953.63
2019-02-21T06:21:56.006Z,953.64
2019-02-21T06:22:55.906Z,953.63
2019-02-21T06:23:55.804Z,953.59
2019-02-21T06:24:55.702Z,953.64
2019-02-21T06:25:59.101Z,953.63
2019-02-21T06:26:55.503Z,953.65
2019-02-21T06:27:55.399Z,953.57
2019-02-21T06:28:55.295Z,953.66
2019-02-21T06:29:55.195Z,953.61
2019-02-21T06:30:55.108Z,953.58
2019-02-21T06:31:54.993Z,953.61
2019-02-21T06:33:04.532Z,953.66
2019-02-21T06:33:54.787Z,953.67
2019-02-21T06:34:54.685Z,953.69
2019-02-21T06:35:54.600Z,953.68
2019-02-21T06:36:54.483Z,953.67
2019-02-21T06:37:54.379Z,953.70
2019-02-21T06:38:54.280Z,953.73
2019-02-21T06:39:54.283Z,953.72
2019-02-21T06:40:54.095Z,953.74
2019-02-21T06:41:59.623Z,953.73
2019-02-21T06:42:53.871Z,953.75
2019-02-21T06:43:56.654Z,953.82
2019-02-21T06:44:53.670Z,953.80
2019-02-21T06:45:53.585Z,953.79
2019-02-21T06:46:53.497Z,953.85
2019-02-21T06:47:53.364Z,953.85
2019-02-21T06:48:53.306Z,953.84
2019-02-21T06:49:53.161Z,953.92
2019-02-21T06:50:53.083Z,953.94
2019-02-21T06:51:52.965Z,953.96
2019-02-21T06:52:52.857Z,953.96
2019-02-21T06:53:53.285Z,953.97
2019-02-21T06:54:52.650Z,953.99
2019-02-21T06:55:52.569Z,953.99
2019-02-21T06:56:52.447Z,953.98
2019-02-21T06:57:52.346Z,953.93
2019-02-21T06:58:52.245Z,953.99
2019-02-21T06:59:52.144Z,953.95
2019-02-21T07:00:52.062Z,953.93
2019-02-21T07:01:51.942Z,953.94
2019-02-21T07:02:54.199Z,953.98
2019-02-21T07:03:51.740Z,953.97
2019-02-21T07:04:51.638Z,953.98
2019-02-21T07:05:51.552Z,953.96
2019-02-21T07:06:51.434Z,954.00
2019-02-21T07:07:51.332Z,954.00
2019-02-21T07:08:51.231Z,954.04
2019-02-21T07:09:51.131Z,954.01
2019-02-21T07:10:51.043Z,954.04
2019-02-21T07:11:50.925Z,954.04
2019-02-21T07:12:50.827Z,954.05
2019-02-21T07:13:50.723Z,954.10
2019-02-21T07:14:50.625Z,954.13
2019-02-21T07:15:50.521Z,954.11
2019-02-21T07:16:50.437Z,954.09
2019-02-21T07:17:50.399Z,954.10
2019-02-21T07:18:50.216Z,954.10
2019-02-21T07:19:50.117Z,954.16
2019-02-21T07:20:50.026Z,954.17
2019-02-21T07:21:49.978Z,954.18
2019-02-21T07:22:49.814Z,954.23
2019-02-21T07:23:49.711Z,954.17
2019-02-21T07:24:49.654Z,954.27
2019-02-21T07:25:50.670Z,954.24
2019-02-21T07:26:49.429Z,954.22
2019-02-21T07:27:49.308Z,954.22
2019-02-21T07:28:49.210Z,954.23
2019-02-21T07:29:49.105Z,954.30
2019-02-21T07:30:49.006Z,954.30
2019-02-21T07:31:49.502Z,954.23
2019-02-21T07:32:48.807Z,954.28
2019-02-21T07:33:48.709Z,954.30
2019-02-21T07:34:48.604Z,954.35
2019-02-21T07:35:48.511Z,954.31
2019-02-21T07:36:50.149Z,954.32
2019-02-21T07:37:48.313Z,954.28
2019-02-21T07:38:48.204Z,954.26
2019-02-21T07:39:50.764Z,954.22
2019-02-21T07:40:48.009Z,954.24
2019-02-21T07:41:49.979Z,954.21
2019-02-21T07:42:48.275Z,954.22
2019-02-21T07:43:47.711Z,954.22
2019-02-21T07:44:47.646Z,954.22
2019-02-21T07:45:47.509Z,954.18
2019-02-21T07:46:47.427Z,954.21
2019-02-21T07:47:47.315Z,954.18
2019-02-21T07:48:47.214Z,954.18
2019-02-21T07:49:47.110Z,954.20
2019-02-21T07:50:47.054Z,954.18
2019-02-21T07:51:46.930Z,954.18
2019-02-21T07:52:46.821Z,954.17
2019-02-21T07:53:46.718Z,954.21
2019-02-21T07:54:49.371Z,954.21
2019-02-21T07:55:46.518Z,954.24
2019-02-21T07:56:46.447Z,954.24
2019-02-21T07:57:46.423Z,954.24
2019-02-21T07:58:46.220Z,954.25
2019-02-21T07:59:46.125Z,954.25
2019-02-21T08:00:46.026Z,954.23
2019-02-21T08:01:45.940Z,954.26
2019-02-21T08:02:45.826Z,954.26
2019-02-21T08:03:48.301Z,954.23
2019-02-21T08:04:45.730Z,954.30
2019-02-21T08:05:45.531Z,954.33
2019-02-21T08:06:45.446Z,954.37
2019-02-21T08:07:45.335Z,954.35
2019-02-21T08:08:45.232Z,954.35
2019-02-21T08:09:45.139Z,954.37
2019-02-21T08:10:45.048Z,954.41
2019-02-21T08:11:45.061Z,954.33
2019-02-21T08:12:44.843Z,954.34
2019-02-21T08:13:44.762Z,954.34
2019-02-21T08:14:44.661Z,954.33
2019-02-21T08:15:44.548Z,954.36
2019-02-21T08:16:44.474Z,954.37
2019-02-21T08:17:44.355Z,954.39
2019-02-21T08:18:44.351Z,954.41
2019-02-21T08:19:44.157Z,954.42
2019-02-21T08:20:44.056Z,954.44
2019-02-21T08:21:44.002Z,954.48
2019-02-21T08:22:43.864Z,954.50
2019-02-21T08:23:50.409Z,954.51
2019-02-21T08:24:43.670Z,954.46
2019-02-21T08:25:43.687Z,954.44
2019-02-21T08:26:43.489Z,954.49
2019-02-21T08:27:43.375Z,954.46
2019-02-21T08:28:43.278Z,954.43
2019-02-21T08:29:43.180Z,954.45
2019-02-21T08:30:43.084Z,954.47
2019-02-21T08:31:42.999Z,954.50
2019-02-21T08:32:42.994Z,954.54
2019-02-21T08:33:45.612Z,954.53
2019-02-21T08:34:42.693Z,954.55
2019-02-21T08:35:42.664Z,954.57
2019-02-21T08:36:42.519Z,954.54
2019-02-21T08:37:42.404Z,954.56
2019-02-21T08:38:42.303Z,954.59
2019-02-21T08:39:42.311Z,954.57
2019-02-21T08:40:42.116Z,954.58
2019-02-21T08:41:42.034Z,954.58
2019-02-21T08:42:41.918Z,954.59
2019-02-21T08:43:41.820Z,954.60
2019-02-21T08:44:41.726Z,954.59
2019-02-21T08:45:41.626Z,954.61
2019-02-21T08:46:41.698Z,954.65
2019-02-21T08:47:41.436Z,954.71
2019-02-21T08:48:41.342Z,954.68
2019-02-21T08:49:41.245Z,954.70
2019-02-21T08:50:41.145Z,954.69
2019-02-21T08:51:41.064Z,954.73
2019-02-21T08:52:40.953Z,954.71
2019-02-21T08:53:40.959Z,954.69
2019-02-21T08:54:40.761Z,954.72
2019-02-21T08:55:40.664Z,954.70
2019-02-21T08:56:40.615Z,954.76
2019-02-21T08:57:40.472Z,954.72
2019-02-21T08:58:40.433Z,954.75
2019-02-21T08:59:42.295Z,954.75
2019-02-21T09:00:40.287Z,954.77
2019-02-21T09:01:40.090Z,954.79
2019-02-21T09:02:40.006Z,954.81
2019-02-21T09:03:39.894Z,954.82
2019-02-21T09:04:39.803Z,954.79
2019-02-21T09:05:39.703Z,954.80
2019-02-21T09:06:39.719Z,954.78
2019-02-21T09:07:39.534Z,954.76
2019-02-21T09:08:39.416Z,954.75
2019-02-21T09:09:39.321Z,954.80
2019-02-21T09:10:39.221Z,954.79
2019-02-21T09:11:39.133Z,954.79
2019-02-21T09:12:39.046Z,954.78
2019-02-21T09:13:41.519Z,954.85
2019-02-21T09:14:38.944Z,954.82
2019-02-21T09:15:38.748Z,954.85
2019-02-21T09:16:38.654Z,954.86
2019-02-21T09:17:38.569Z,954.87
2019-02-21T09:18:38.457Z,954.85
2019-02-21T09:19:38.363Z,954.84
2019-02-21T09:20:38.396Z,954.87
2019-02-21T09:21:38.175Z,954.92
2019-02-21T09:22:38.096Z,954.88
2019-02-21T09:23:38.003Z,954.92
2019-02-21T09:24:42.014Z,954.88
2019-02-21T09:25:37.806Z,954.85
2019-02-21T09:26:37.694Z,954.87
2019-02-21T09:27:37.614Z,954.86
2019-02-21T09:28:37.502Z,954.86
2019-02-21T09:29:37.467Z,954.84
2019-02-21T09:30:37.327Z,954.84
2019-02-21T09:31:37.219Z,954.81
2019-02-21T09:32:37.154Z,954.81
2019-02-21T09:33:37.395Z,954.81
2019-02-21T09:34:36.926Z,954.86
2019-02-21T09:35:36.834Z,954.82
2019-02-21T09:36:36.751Z,954.82
2019-02-21T09:37:36.661Z,954.80
2019-02-21T09:38:36.619Z,954.78
2019-02-21T09:39:36.449Z,954.79
2019-02-21T09:40:36.359Z,954.80
2019-02-21T09:41:36.258Z,954.81
2019-02-21T09:42:36.177Z,954.80
2019-02-21T09:43:36.140Z,954.79
2019-02-21T09:44:36.003Z,954.84
2019-02-21T09:45:35.954Z,954.82
2019-02-21T09:46:35.779Z,954.82
2019-02-21T09:47:35.704Z,954.90
2019-02-21T09:48:35.590Z,954.92
2019-02-21T09:49:35.496Z,954.91
2019-02-21T09:50:35.396Z,954.95
2019-02-21T09:51:36.609Z,954.93
2019-02-21T09:52:35.219Z,954.86
2019-02-21T09:53:35.108Z,954.85
2019-02-21T09:54:35.017Z,954.81
2019-02-21T09:55:34.935Z,954.80
2019-02-21T09:56:34.825Z,954.78
2019-02-21T09:57:34.742Z,954.75
2019-02-21T09:58:34.632Z,954.74
2019-02-21T09:59:34.537Z,954.75
2019-02-21T10:00:36.022Z,954.70
2019-02-21T10:01:34.341Z,954.70
2019-02-21T10:02:34.262Z,954.70
2019-02-21T10:03:34.148Z,954.68
2019-02-21T10:04:34.060Z,954.68
2019-02-21T10:05:33.957Z,954.68
2019-02-21T10:06:33.863Z,954.68
2019-02-21T10:07:33.784Z,954.72
2019-02-21T10:08:33.672Z,954.71
2019-02-21T10:09:33.585Z,954.74
2019-02-21T10:10:33.476Z,954.72
2019-02-21T10:11:33.384Z,954.71
2019-02-21T10:12:33.305Z,954.74
2019-02-21T10:13:33.190Z,954.77
2019-02-21T10:14:33.093Z,954.81
2019-02-21T10:15:32.994Z,954.80
2019-02-21T10:16:32.902Z,954.80
2019-02-21T10:17:32.819Z,954.76
2019-02-21T10:18:32.706Z,954.75
2019-02-21T10:19:32.610Z,954.67
2019-02-21T10:20:32.514Z,954.69
2019-02-21T10:21:32.415Z,954.72
2019-02-21T10:22:32.335Z,954.76
2019-02-21T10:23:32.221Z,954.71
2019-02-21T10:24:32.129Z,954.78
2019-02-21T10:25:32.030Z,954.82
2019-02-21T10:26:31.928Z,954.78
2019-02-21T10:27:31.853Z,954.80
2019-02-21T10:28:32.583Z,954.79
2019-02-21T10:29:31.639Z,954.81
2019-02-21T10:30:31.570Z,954.76
2019-02-21T10:31:31.445Z,954.74
2019-02-21T10:32:31.366Z,954.78
2019-02-21T10:33:31.251Z,954.77
2019-02-21T10:34:31.155Z,954.68
2019-02-21T10:35:31.072Z,954.71
2019-02-21T10:36:30.960Z,954.73
2019-02-21T10:37:30.988Z,954.68
2019-02-21T10:38:30.768Z,954.72
2019-02-21T10:39:30.672Z,954.68
2019-02-21T10:40:32.723Z,954.67
2019-02-21T10:41:30.485Z,954.62
2019-02-21T10:42:30.400Z,954.67
2019-02-21T10:43:30.285Z,954.62
2019-02-21T10:44:30.292Z,954.57
2019-02-21T10:45:30.091Z,954.58
2019-02-21T10:46:30.885Z,954.61
2019-02-21T10:47:29.903Z,954.59
2019-02-21T10:48:29.818Z,954.60
2019-02-21T10:49:29.711Z,954.67
2019-02-21T10:50:29.608Z,954.62
2019-02-21T10:51:29.616Z,954.67
2019-02-21T10:52:29.423Z,954.65
2019-02-21T10:53:29.338Z,954.66
2019-02-21T10:54:29.223Z,954.64
2019-02-21T10:55:29.185Z,954.61
2019-02-21T10:56:29.028Z,954.63
2019-02-21T10:57:28.934Z,954.51
2019-02-21T10:58:28.953Z,954.63
2019-02-21T10:59:28.740Z,954.61
2019-02-21T11:00:28.657Z,954.60
2019-02-21T11:01:28.550Z,954.57
2019-02-21T11:02:28.452Z,954.66
2019-02-21T11:03:28.372Z,954.58
2019-02-21T11:04:28.269Z,954.55
2019-02-21T11:05:28.270Z,954.54
2019-02-21T11:06:28.061Z,954.56
2019-02-21T11:07:27.972Z,954.59
2019-02-21T11:08:27.889Z,954.62
2019-02-21T11:09:27.775Z,954.67
2019-02-21T11:10:27.680Z,954.65
2019-02-21T11:11:27.582Z,954.66
2019-02-21T11:12:27.589Z,954.63
2019-02-21T11:13:27.404Z,954.64
2019-02-21T11:14:27.292Z,954.60
2019-02-21T11:15:27.195Z,954.48
2019-02-21T11:16:27.100Z,954.63
2019-02-21T11:17:27.007Z,954.62
2019-02-21T11:18:26.922Z,954.52
2019-02-21T11:19:26.915Z,954.46
2019-02-21T11:20:26.717Z,954.46
2019-02-21T11:21:26.622Z,954.41
2019-02-21T11:22:26.521Z,954.44
2019-02-21T11:23:26.445Z,954.47
2019-02-21T11:24:26.335Z,954.47
2019-02-21T11:25:26.238Z,954.42
2019-02-21T11:26:26.241Z,954.37
2019-02-21T11:27:26.042Z,954.43
2019-02-21T11:28:25.965Z,954.34
2019-02-21T11:29:25.852Z,954.34
2019-02-21T11:30:25.760Z,954.34
2019-02-21T11:31:27.789Z,954.35
2019-02-21T11:32:25.562Z,954.35
2019-02-21T11:33:25.584Z,954.37
2019-02-21T11:34:25.372Z,954.33
2019-02-21T11:35:25.276Z,954.30
2019-02-21T11:36:25.183Z,954.32
2019-02-21T11:37:25.084Z,954.31
2019-02-21T11:38:25.004Z,954.33
2019-02-21T11:39:24.993Z,954.31
2019-02-21T11:40:24.795Z,954.30
2019-02-21T11:41:24.699Z,954.29
2019-02-21T11:42:24.605Z,954.30
2019-02-21T11:43:24.525Z,954.25
2019-02-21T11:44:24.411Z,954.27
2019-02-21T11:45:24.314Z,954.19
2019-02-21T11:46:24.223Z,954.17
2019-02-21T11:47:24.225Z,954.17
2019-02-21T11:48:24.040Z,954.16
2019-02-21T11:49:23.933Z,954.17
2019-02-21T11:50:23.835Z,954.10
2019-02-21T11:51:23.738Z,954.08
2019-02-21T11:52:23.638Z,954.05
2019-02-21T11:53:23.557Z,954.06
2019-02-21T11:54:26.708Z,954.00
2019-02-21T11:55:23.348Z,954.06
2019-02-21T11:56:23.252Z,954.06
2019-02-21T11:57:23.154Z,953.98
2019-02-21T11:58:23.077Z,954.03
2019-02-21T11:59:22.961Z,954.00
2019-02-21T12:00:22.867Z,954.00
2019-02-21T12:01:22.770Z,954.01
2019-02-21T12:02:22.675Z,954.02
2019-02-21T12:03:22.606Z,953.98
2019-02-21T12:04:24.388Z,954.06
2019-02-21T12:05:30.407Z,954.00
2019-02-21T12:06:22.284Z,954.01
2019-02-21T12:07:22.185Z,954.03
2019-02-21T12:08:22.108Z,954.01
2019-02-21T12:09:21.992Z,954.02
2019-02-21T12:10:21.895Z,954.02
2019-02-21T12:11:21.795Z,954.02
2019-02-21T12:12:21.699Z,953.99
2019-02-21T12:13:21.620Z,954.03
2019-02-21T12:14:21.507Z,953.95
2019-02-21T12:15:21.424Z,954.00
2019-02-21T12:16:21.319Z,953.89
2019-02-21T12:17:21.214Z,953.92
2019-02-21T12:18:21.130Z,953.88
2019-02-21T12:19:21.017Z,953.91
2019-02-21T12:20:20.920Z,953.88
2019-02-21T12:21:20.827Z,953.90
2019-02-21T12:22:20.728Z,953.95
2019-02-21T12:23:20.644Z,953.96
2019-02-21T12:24:20.532Z,953.97
2019-02-21T12:25:20.435Z,953.94
2019-02-21T12:26:20.335Z,953.93
2019-02-21T12:27:20.239Z,953.99